sensor_id;sensor_type;location;lat;lon;timestamp;temperature;humidity
35531;DHT22;21637;53.352;-6.356;2022-10-16T00:00:42;8.20;99.90
35531;DHT22;21637;53.352;-6.356;2022-10-16T00:03:08;8.20;99.90
35531;DHT22;21637;53.352;-6.356;2022-10-16T00:05:38;8.20;99.90
35531;DHT22;21637;53.352;-6.356;2022-10-16T00:08:04;8.20;99.90
35531;DHT22;21637;53.352;-6.356;2022-10-16T00:10:30;8.10;99.90
35531;DHT22;21637;53.352;-6.356;2022-10-16T00:12:55;8.20;99.90
35531;DHT22;21637;53.352;-6.356;2022-10-16T00:15:21;8.10;99.90
35531;DHT22;21637;53.352;-6.356;2022-10-16T00:17:47;8.10;99.90
35531;DHT22;21637;53.352;-6.356;2022-10-16T00:20:12;8.10;99.90
35531;DHT22;21637;53.352;-6.356;2022-10-16T00:22:38;8.20;99.90
35531;DHT22;21637;53.352;-6.356;2022-10-16T00:25:03;8.10;99.90
35531;DHT22;21637;53.352;-6.356;2022-10-16T00:27:29;8.20;99.90
35531;DHT22;21637;53.352;-6.356;2022-10-16T00:29:55;8.20;99.90
35531;DHT22;21637;53.352;-6.356;2022-10-16T00:32:20;8.20;99.90
35531;DHT22;21637;53.352;-6.356;2022-10-16T00:34:46;8.30;99.90
35531;DHT22;21637;53.352;-6.356;2022-10-16T00:37:12;8.30;99.90
35531;DHT22;21637;53.352;-6.356;2022-10-16T00:39:37;8.30;99.90
35531;DHT22;21637;53.352;-6.356;2022-10-16T00:42:03;8.30;99.90
35531;DHT22;21637;53.352;-6.356;2022-10-16T00:44:49;8.30;99.90
35531;DHT22;21637;53.352;-6.356;2022-10-16T00:47:17;8.20;99.90
35531;DHT22;21637;53.352;-6.356;2022-10-16T00:49:45;8.30;99.90
35531;DHT22;21637;53.352;-6.356;2022-10-16T00:52:11;8.30;99.90
35531;DHT22;21637;53.352;-6.356;2022-10-16T00:54:37;8.20;99.90
35531;DHT22;21637;53.352;-6.356;2022-10-16T00:57:04;8.20;99.90
35531;DHT22;21637;53.352;-6.356;2022-10-16T00:59:32;8.30;99.90
35531;DHT22;21637;53.352;-6.356;2022-10-16T01:01:58;8.20;99.90
35531;DHT22;21637;53.352;-6.356;2022-10-16T01:04:24;8.30;99.90
35531;DHT22;21637;53.352;-6.356;2022-10-16T01:06:52;8.20;99.90
35531;DHT22;21637;53.352;-6.356;2022-10-16T01:09:23;8.30;99.90
35531;DHT22;21637;53.352;-6.356;2022-10-16T01:14:42;8.20;99.90
35531;DHT22;21637;53.352;-6.356;2022-10-16T01:17:12;8.30;99.90
35531;DHT22;21637;53.352;-6.356;2022-10-16T01:19:56;8.20;99.90
35531;DHT22;21637;53.352;-6.356;2022-10-16T01:22:28;8.20;99.90
35531;DHT22;21637;53.352;-6.356;2022-10-16T01:24:58;8.20;99.90
35531;DHT22;21637;53.352;-6.356;2022-10-16T01:27:26;8.10;99.90
35531;DHT22;21637;53.352;-6.356;2022-10-16T01:32:38;8.20;99.90
35531;DHT22;21637;53.352;-6.356;2022-10-16T01:35:08;8.10;99.90
35531;DHT22;21637;53.352;-6.356;2022-10-16T01:37:43;8.10;99.90
35531;DHT22;21637;53.352;-6.356;2022-10-16T01:40:13;8.10;99.90
35531;DHT22;21637;53.352;-6.356;2022-10-16T01:42:41;8.10;99.90
35531;DHT22;21637;53.352;-6.356;2022-10-16T01:45:07;8.10;99.90
35531;DHT22;21637;53.352;-6.356;2022-10-16T01:47:36;8.10;99.90
35531;DHT22;21637;53.352;-6.356;2022-10-16T01:50:03;8.10;99.90
35531;DHT22;21637;53.352;-6.356;2022-10-16T01:52:30;8.20;99.90
35531;DHT22;21637;53.352;-6.356;2022-10-16T01:54:57;8.20;99.90
35531;DHT22;21637;53.352;-6.356;2022-10-16T01:57:23;8.20;99.90
35531;DHT22;21637;53.352;-6.356;2022-10-16T01:59:51;8.10;99.90
35531;DHT22;21637;53.352;-6.356;2022-10-16T02:02:18;8.10;99.90
35531;DHT22;21637;53.352;-6.356;2022-10-16T02:04:45;8.10;99.90
35531;DHT22;21637;53.352;-6.356;2022-10-16T02:07:11;8.00;99.90
35531;DHT22;21637;53.352;-6.356;2022-10-16T02:09:37;8.00;99.90
35531;DHT22;21637;53.352;-6.356;2022-10-16T02:12:06;8.10;99.90
35531;DHT22;21637;53.352;-6.356;2022-10-16T02:14:34;8.00;99.90
35531;DHT22;21637;53.352;-6.356;2022-10-16T02:16:59;8.00;99.90
35531;DHT22;21637;53.352;-6.356;2022-10-16T02:19:25;8.00;99.90
35531;DHT22;21637;53.352;-6.356;2022-10-16T02:21:51;8.00;99.90
35531;DHT22;21637;53.352;-6.356;2022-10-16T02:24:21;8.00;99.90
35531;DHT22;21637;53.352;-6.356;2022-10-16T02:26:52;7.90;99.90
35531;DHT22;21637;53.352;-6.356;2022-10-16T02:29:23;7.90;99.90
35531;DHT22;21637;53.352;-6.356;2022-10-16T02:31:52;7.90;99.90
35531;DHT22;21637;53.352;-6.356;2022-10-16T02:34:19;7.90;99.90
35531;DHT22;21637;53.352;-6.356;2022-10-16T02:36:46;7.90;99.90
35531;DHT22;21637;53.352;-6.356;2022-10-16T02:39:12;7.90;99.90
35531;DHT22;21637;53.352;-6.356;2022-10-16T02:41:39;7.90;99.90
35531;DHT22;21637;53.352;-6.356;2022-10-16T02:44:04;7.90;99.90
35531;DHT22;21637;53.352;-6.356;2022-10-16T02:46:30;7.90;99.90
35531;DHT22;21637;53.352;-6.356;2022-10-16T02:48:55;7.80;99.90
35531;DHT22;21637;53.352;-6.356;2022-10-16T02:51:21;7.80;99.90
35531;DHT22;21637;53.352;-6.356;2022-10-16T02:53:46;7.90;99.90
35531;DHT22;21637;53.352;-6.356;2022-10-16T02:56:12;7.80;99.90
35531;DHT22;21637;53.352;-6.356;2022-10-16T02:58:38;7.80;99.90
35531;DHT22;21637;53.352;-6.356;2022-10-16T03:01:03;7.80;99.90
35531;DHT22;21637;53.352;-6.356;2022-10-16T03:03:29;7.80;99.90
35531;DHT22;21637;53.352;-6.356;2022-10-16T03:05:54;7.80;99.90
35531;DHT22;21637;53.352;-6.356;2022-10-16T03:08:20;7.80;99.90
35531;DHT22;21637;53.352;-6.356;2022-10-16T03:10:49;7.80;99.90
35531;DHT22;21637;53.352;-6.356;2022-10-16T03:13:14;7.90;99.90
35531;DHT22;21637;53.352;-6.356;2022-10-16T03:15:40;7.90;99.90
35531;DHT22;21637;53.352;-6.356;2022-10-16T03:18:06;7.80;99.90
35531;DHT22;21637;53.352;-6.356;2022-10-16T03:20:31;7.80;99.90
35531;DHT22;21637;53.352;-6.356;2022-10-16T03:22:57;7.80;99.90
35531;DHT22;21637;53.352;-6.356;2022-10-16T03:25:22;7.80;99.90
35531;DHT22;21637;53.352;-6.356;2022-10-16T03:27:48;7.80;99.90
35531;DHT22;21637;53.352;-6.356;2022-10-16T03:30:13;7.80;99.90
35531;DHT22;21637;53.352;-6.356;2022-10-16T03:32:39;7.80;99.90
35531;DHT22;21637;53.352;-6.356;2022-10-16T03:35:05;7.80;99.90
35531;DHT22;21637;53.352;-6.356;2022-10-16T03:37:30;7.80;99.90
35531;DHT22;21637;53.352;-6.356;2022-10-16T03:39:56;7.80;99.90
35531;DHT22;21637;53.352;-6.356;2022-10-16T03:42:21;7.80;99.90
35531;DHT22;21637;53.352;-6.356;2022-10-16T03:44:47;7.70;99.90
35531;DHT22;21637;53.352;-6.356;2022-10-16T03:47:13;7.70;99.90
35531;DHT22;21637;53.352;-6.356;2022-10-16T03:49:38;7.70;99.90
35531;DHT22;21637;53.352;-6.356;2022-10-16T03:52:04;7.70;99.90
35531;DHT22;21637;53.352;-6.356;2022-10-16T03:54:29;7.70;99.90
35531;DHT22;21637;53.352;-6.356;2022-10-16T03:56:55;7.80;99.90
35531;DHT22;21637;53.352;-6.356;2022-10-16T03:59:20;7.70;99.90
35531;DHT22;21637;53.352;-6.356;2022-10-16T04:01:46;7.70;99.90
35531;DHT22;21637;53.352;-6.356;2022-10-16T04:04:11;7.80;99.90
35531;DHT22;21637;53.352;-6.356;2022-10-16T04:06:37;7.90;99.90
35531;DHT22;21637;53.352;-6.356;2022-10-16T04:09:03;7.80;99.90
35531;DHT22;21637;53.352;-6.356;2022-10-16T04:11:28;7.90;99.90
35531;DHT22;21637;53.352;-6.356;2022-10-16T04:13:54;7.80;99.90
35531;DHT22;21637;53.352;-6.356;2022-10-16T04:16:19;7.80;99.90
35531;DHT22;21637;53.352;-6.356;2022-10-16T04:18:45;7.80;99.90
35531;DHT22;21637;53.352;-6.356;2022-10-16T04:21:11;7.80;99.90
35531;DHT22;21637;53.352;-6.356;2022-10-16T04:23:36;7.90;99.90
35531;DHT22;21637;53.352;-6.356;2022-10-16T04:26:02;7.80;99.90
35531;DHT22;21637;53.352;-6.356;2022-10-16T04:28:28;7.90;99.90
35531;DHT22;21637;53.352;-6.356;2022-10-16T04:30:53;7.90;99.90
35531;DHT22;21637;53.352;-6.356;2022-10-16T04:33:19;7.90;99.90
35531;DHT22;21637;53.352;-6.356;2022-10-16T04:35:44;7.90;99.90
35531;DHT22;21637;53.352;-6.356;2022-10-16T04:38:10;7.90;99.90
35531;DHT22;21637;53.352;-6.356;2022-10-16T04:40:36;7.80;99.90
35531;DHT22;21637;53.352;-6.356;2022-10-16T04:43:02;7.80;99.90
35531;DHT22;21637;53.352;-6.356;2022-10-16T04:45:28;7.80;99.90
35531;DHT22;21637;53.352;-6.356;2022-10-16T04:47:56;7.80;99.90
35531;DHT22;21637;53.352;-6.356;2022-10-16T04:50:22;7.80;99.90
35531;DHT22;21637;53.352;-6.356;2022-10-16T04:52:48;7.70;99.90
35531;DHT22;21637;53.352;-6.356;2022-10-16T04:55:14;7.70;99.90
35531;DHT22;21637;53.352;-6.356;2022-10-16T04:57:40;7.80;99.90
35531;DHT22;21637;53.352;-6.356;2022-10-16T05:00:05;7.70;99.90
35531;DHT22;21637;53.352;-6.356;2022-10-16T05:02:31;7.70;99.90
35531;DHT22;21637;53.352;-6.356;2022-10-16T05:04:56;7.70;99.90
35531;DHT22;21637;53.352;-6.356;2022-10-16T05:07:22;7.70;99.90
35531;DHT22;21637;53.352;-6.356;2022-10-16T05:09:47;7.70;99.90
35531;DHT22;21637;53.352;-6.356;2022-10-16T05:12:13;7.70;99.90
35531;DHT22;21637;53.352;-6.356;2022-10-16T05:14:39;7.70;99.90
35531;DHT22;21637;53.352;-6.356;2022-10-16T05:17:04;7.60;99.90
35531;DHT22;21637;53.352;-6.356;2022-10-16T05:19:30;7.70;99.90
35531;DHT22;21637;53.352;-6.356;2022-10-16T05:21:55;7.70;99.90
35531;DHT22;21637;53.352;-6.356;2022-10-16T05:24:21;7.70;99.90
35531;DHT22;21637;53.352;-6.356;2022-10-16T05:26:46;7.70;99.90
35531;DHT22;21637;53.352;-6.356;2022-10-16T05:29:12;7.60;99.90
35531;DHT22;21637;53.352;-6.356;2022-10-16T05:31:38;7.70;99.90
35531;DHT22;21637;53.352;-6.356;2022-10-16T05:34:03;7.70;99.90
35531;DHT22;21637;53.352;-6.356;2022-10-16T05:36:29;7.70;99.90
35531;DHT22;21637;53.352;-6.356;2022-10-16T05:38:54;7.70;99.90
35531;DHT22;21637;53.352;-6.356;2022-10-16T05:41:20;7.80;99.90
35531;DHT22;21637;53.352;-6.356;2022-10-16T05:43:47;7.80;99.90
35531;DHT22;21637;53.352;-6.356;2022-10-16T05:46:13;7.80;99.90
35531;DHT22;21637;53.352;-6.356;2022-10-16T05:48:39;7.80;99.90
35531;DHT22;21637;53.352;-6.356;2022-10-16T05:51:08;7.80;99.90
35531;DHT22;21637;53.352;-6.356;2022-10-16T05:53:35;7.70;99.90
35531;DHT22;21637;53.352;-6.356;2022-10-16T05:56:01;7.70;99.90
35531;DHT22;21637;53.352;-6.356;2022-10-16T05:58:30;7.70;99.90
35531;DHT22;21637;53.352;-6.356;2022-10-16T06:00:57;7.70;99.90
35531;DHT22;21637;53.352;-6.356;2022-10-16T06:03:23;7.80;99.90
35531;DHT22;21637;53.352;-6.356;2022-10-16T06:05:49;7.80;99.90
35531;DHT22;21637;53.352;-6.356;2022-10-16T06:08:15;7.80;99.90
35531;DHT22;21637;53.352;-6.356;2022-10-16T06:10:40;7.80;99.90
35531;DHT22;21637;53.352;-6.356;2022-10-16T06:13:06;7.80;99.90
35531;DHT22;21637;53.352;-6.356;2022-10-16T06:15:31;7.80;99.90
35531;DHT22;21637;53.352;-6.356;2022-10-16T06:17:57;7.80;99.90
35531;DHT22;21637;53.352;-6.356;2022-10-16T06:20:23;7.70;99.90
35531;DHT22;21637;53.352;-6.356;2022-10-16T06:22:48;7.70;99.90
35531;DHT22;21637;53.352;-6.356;2022-10-16T06:25:14;7.70;99.90
35531;DHT22;21637;53.352;-6.356;2022-10-16T06:27:39;7.70;99.90
35531;DHT22;21637;53.352;-6.356;2022-10-16T06:30:06;7.70;99.90
35531;DHT22;21637;53.352;-6.356;2022-10-16T06:32:31;7.60;99.90
35531;DHT22;21637;53.352;-6.356;2022-10-16T06:34:57;7.60;99.90
35531;DHT22;21637;53.352;-6.356;2022-10-16T06:37:23;7.60;99.90
35531;DHT22;21637;53.352;-6.356;2022-10-16T06:39:48;7.60;99.90
35531;DHT22;21637;53.352;-6.356;2022-10-16T06:42:14;7.60;99.90
35531;DHT22;21637;53.352;-6.356;2022-10-16T06:44:40;7.60;99.90
35531;DHT22;21637;53.352;-6.356;2022-10-16T06:47:06;7.50;99.90
35531;DHT22;21637;53.352;-6.356;2022-10-16T06:49:31;7.50;99.90
35531;DHT22;21637;53.352;-6.356;2022-10-16T06:51:57;7.40;99.90
35531;DHT22;21637;53.352;-6.356;2022-10-16T06:54:22;7.40;99.90
35531;DHT22;21637;53.352;-6.356;2022-10-16T06:56:48;7.40;99.90
35531;DHT22;21637;53.352;-6.356;2022-10-16T06:59:14;7.40;99.90
35531;DHT22;21637;53.352;-6.356;2022-10-16T07:01:39;7.40;99.90
35531;DHT22;21637;53.352;-6.356;2022-10-16T07:04:05;7.40;99.90
35531;DHT22;21637;53.352;-6.356;2022-10-16T07:06:32;7.40;99.90
35531;DHT22;21637;53.352;-6.356;2022-10-16T07:08:57;7.40;99.90
35531;DHT22;21637;53.352;-6.356;2022-10-16T07:11:23;7.40;99.90
35531;DHT22;21637;53.352;-6.356;2022-10-16T07:13:50;7.40;99.90
35531;DHT22;21637;53.352;-6.356;2022-10-16T07:16:19;7.40;99.90
35531;DHT22;21637;53.352;-6.356;2022-10-16T07:18:45;7.40;99.90
35531;DHT22;21637;53.352;-6.356;2022-10-16T07:21:12;7.40;99.90
35531;DHT22;21637;53.352;-6.356;2022-10-16T07:23:38;7.40;99.90
35531;DHT22;21637;53.352;-6.356;2022-10-16T07:26:05;7.50;99.90
35531;DHT22;21637;53.352;-6.356;2022-10-16T07:28:31;7.50;99.90
35531;DHT22;21637;53.352;-6.356;2022-10-16T07:31:30;7.60;99.90
35531;DHT22;21637;53.352;-6.356;2022-10-16T07:33:49;7.70;99.90
35531;DHT22;21637;53.352;-6.356;2022-10-16T07:36:15;7.70;99.90
35531;DHT22;21637;53.352;-6.356;2022-10-16T07:38:41;7.80;99.90
35531;DHT22;21637;53.352;-6.356;2022-10-16T07:41:08;7.90;99.90
35531;DHT22;21637;53.352;-6.356;2022-10-16T07:43:34;7.90;99.90
35531;DHT22;21637;53.352;-6.356;2022-10-16T07:46:00;8.00;99.90
35531;DHT22;21637;53.352;-6.356;2022-10-16T07:48:30;8.10;99.90
35531;DHT22;21637;53.352;-6.356;2022-10-16T07:51:03;8.10;99.90
35531;DHT22;21637;53.352;-6.356;2022-10-16T07:53:29;8.20;99.90
35531;DHT22;21637;53.352;-6.356;2022-10-16T07:55:59;8.20;99.90
35531;DHT22;21637;53.352;-6.356;2022-10-16T07:58:25;8.30;99.90
35531;DHT22;21637;53.352;-6.356;2022-10-16T08:00:51;8.30;99.90
35531;DHT22;21637;53.352;-6.356;2022-10-16T08:03:16;8.30;99.90
35531;DHT22;21637;53.352;-6.356;2022-10-16T08:05:42;8.30;99.90
35531;DHT22;21637;53.352;-6.356;2022-10-16T08:08:11;8.40;99.90
35531;DHT22;21637;53.352;-6.356;2022-10-16T08:10:58;8.40;99.90
35531;DHT22;21637;53.352;-6.356;2022-10-16T08:13:22;8.40;99.90
35531;DHT22;21637;53.352;-6.356;2022-10-16T08:15:48;8.40;99.90
35531;DHT22;21637;53.352;-6.356;2022-10-16T08:18:14;8.50;99.90
35531;DHT22;21637;53.352;-6.356;2022-10-16T08:20:40;8.50;99.90
35531;DHT22;21637;53.352;-6.356;2022-10-16T08:23:06;8.50;99.90
35531;DHT22;21637;53.352;-6.356;2022-10-16T08:25:34;8.60;99.90
35531;DHT22;21637;53.352;-6.356;2022-10-16T08:27:59;8.60;99.90
35531;DHT22;21637;53.352;-6.356;2022-10-16T08:30:25;8.70;99.90
35531;DHT22;21637;53.352;-6.356;2022-10-16T08:32:51;8.70;99.90
35531;DHT22;21637;53.352;-6.356;2022-10-16T08:35:16;8.70;99.90
35531;DHT22;21637;53.352;-6.356;2022-10-16T08:37:42;8.70;99.90
35531;DHT22;21637;53.352;-6.356;2022-10-16T08:40:22;8.80;99.90
35531;DHT22;21637;53.352;-6.356;2022-10-16T08:45:30;8.90;99.90
35531;DHT22;21637;53.352;-6.356;2022-10-16T08:50:28;9.10;99.90
35531;DHT22;21637;53.352;-6.356;2022-10-16T08:52:54;9.20;99.90
35531;DHT22;21637;53.352;-6.356;2022-10-16T08:55:26;9.20;99.90
35531;DHT22;21637;53.352;-6.356;2022-10-16T08:57:53;9.30;99.90
35531;DHT22;21637;53.352;-6.356;2022-10-16T09:00:19;9.40;99.90
35531;DHT22;21637;53.352;-6.356;2022-10-16T09:03:20;9.50;99.90
35531;DHT22;21637;53.352;-6.356;2022-10-16T09:08:17;9.60;99.90
35531;DHT22;21637;53.352;-6.356;2022-10-16T09:13:19;9.80;99.90
35531;DHT22;21637;53.352;-6.356;2022-10-16T09:15:58;9.80;99.90
35531;DHT22;21637;53.352;-6.356;2022-10-16T09:21:29;9.80;99.90
35531;DHT22;21637;53.352;-6.356;2022-10-16T09:26:54;10.00;99.90
35531;DHT22;21637;53.352;-6.356;2022-10-16T09:29:24;10.00;99.90
35531;DHT22;21637;53.352;-6.356;2022-10-16T09:31:50;10.00;99.90
35531;DHT22;21637;53.352;-6.356;2022-10-16T09:34:30;10.00;99.90
35531;DHT22;21637;53.352;-6.356;2022-10-16T09:36:56;10.10;99.90
35531;DHT22;21637;53.352;-6.356;2022-10-16T09:39:22;10.10;99.90
35531;DHT22;21637;53.352;-6.356;2022-10-16T09:41:48;10.20;99.90
35531;DHT22;21637;53.352;-6.356;2022-10-16T09:44:19;10.20;99.90
35531;DHT22;21637;53.352;-6.356;2022-10-16T09:46:46;10.30;99.90
35531;DHT22;21637;53.352;-6.356;2022-10-16T09:51:44;10.40;99.90
35531;DHT22;21637;53.352;-6.356;2022-10-16T09:56:35;10.50;99.90
35531;DHT22;21637;53.352;-6.356;2022-10-16T10:01:56;10.70;99.90
35531;DHT22;21637;53.352;-6.356;2022-10-16T10:04:36;10.80;99.90
35531;DHT22;21637;53.352;-6.356;2022-10-16T10:07:02;10.70;99.90
35531;DHT22;21637;53.352;-6.356;2022-10-16T10:11:55;10.90;99.90
35531;DHT22;21637;53.352;-6.356;2022-10-16T10:20:15;11.10;99.90
35531;DHT22;21637;53.352;-6.356;2022-10-16T10:22:25;11.20;99.90
35531;DHT22;21637;53.352;-6.356;2022-10-16T10:25:12;11.10;99.90
35531;DHT22;21637;53.352;-6.356;2022-10-16T10:33:21;11.20;99.90
35531;DHT22;21637;53.352;-6.356;2022-10-16T10:40:51;11.30;99.90
35531;DHT22;21637;53.352;-6.356;2022-10-16T10:45:51;11.30;99.90
35531;DHT22;21637;53.352;-6.356;2022-10-16T10:48:24;11.40;99.90
35531;DHT22;21637;53.352;-6.356;2022-10-16T10:50:57;11.50;99.90
35531;DHT22;21637;53.352;-6.356;2022-10-16T10:53:30;11.50;99.90
35531;DHT22;21637;53.352;-6.356;2022-10-16T11:01:18;11.40;99.90
35531;DHT22;21637;53.352;-6.356;2022-10-16T11:06:52;11.50;99.90
35531;DHT22;21637;53.352;-6.356;2022-10-16T11:09:22;11.50;99.90
35531;DHT22;21637;53.352;-6.356;2022-10-16T11:11:50;11.50;99.90
35531;DHT22;21637;53.352;-6.356;2022-10-16T11:14:21;11.60;99.90
35531;DHT22;21637;53.352;-6.356;2022-10-16T11:17:31;11.60;99.90
35531;DHT22;21637;53.352;-6.356;2022-10-16T11:22:11;11.60;99.90
35531;DHT22;21637;53.352;-6.356;2022-10-16T11:27:27;11.60;99.90
35531;DHT22;21637;53.352;-6.356;2022-10-16T11:29:57;11.60;99.90
35531;DHT22;21637;53.352;-6.356;2022-10-16T11:32:27;11.60;99.90
35531;DHT22;21637;53.352;-6.356;2022-10-16T11:34:56;11.60;99.90
35531;DHT22;21637;53.352;-6.356;2022-10-16T11:37:32;11.60;99.90
35531;DHT22;21637;53.352;-6.356;2022-10-16T11:40:03;11.60;99.90
35531;DHT22;21637;53.352;-6.356;2022-10-16T11:42:32;11.60;99.90
35531;DHT22;21637;53.352;-6.356;2022-10-16T11:45:21;11.60;99.90
35531;DHT22;21637;53.352;-6.356;2022-10-16T11:48:01;11.60;99.90
35531;DHT22;21637;53.352;-6.356;2022-10-16T11:50:40;11.60;99.90
35531;DHT22;21637;53.352;-6.356;2022-10-16T11:55:46;11.70;99.90
35531;DHT22;21637;53.352;-6.356;2022-10-16T12:00:41;11.60;99.90
35531;DHT22;21637;53.352;-6.356;2022-10-16T12:08:04;11.70;99.90
35531;DHT22;21637;53.352;-6.356;2022-10-16T12:10:31;11.60;99.90
35531;DHT22;21637;53.352;-6.356;2022-10-16T12:13:02;11.60;99.90
35531;DHT22;21637;53.352;-6.356;2022-10-16T12:15:29;11.60;99.90
35531;DHT22;21637;53.352;-6.356;2022-10-16T12:17:55;11.60;99.90
35531;DHT22;21637;53.352;-6.356;2022-10-16T12:20:31;11.70;99.90
35531;DHT22;21637;53.352;-6.356;2022-10-16T12:23:01;11.70;99.90
35531;DHT22;21637;53.352;-6.356;2022-10-16T12:28:04;11.60;99.90
35531;DHT22;21637;53.352;-6.356;2022-10-16T12:30:31;11.60;99.90
35531;DHT22;21637;53.352;-6.356;2022-10-16T12:32:58;11.60;99.90
35531;DHT22;21637;53.352;-6.356;2022-10-16T12:35:28;11.60;99.90
35531;DHT22;21637;53.352;-6.356;2022-10-16T12:38:04;11.60;99.90
35531;DHT22;21637;53.352;-6.356;2022-10-16T12:40:31;11.60;99.90
35531;DHT22;21637;53.352;-6.356;2022-10-16T12:42:58;11.70;99.90
35531;DHT22;21637;53.352;-6.356;2022-10-16T12:45:25;11.70;99.90
35531;DHT22;21637;53.352;-6.356;2022-10-16T12:47:52;11.70;99.90
35531;DHT22;21637;53.352;-6.356;2022-10-16T12:50:35;11.70;99.90
35531;DHT22;21637;53.352;-6.356;2022-10-16T12:53:02;11.60;99.90
35531;DHT22;21637;53.352;-6.356;2022-10-16T12:55:32;11.60;99.90
35531;DHT22;21637;53.352;-6.356;2022-10-16T13:00:45;11.60;99.90
35531;DHT22;21637;53.352;-6.356;2022-10-16T13:08:51;11.50;99.90
35531;DHT22;21637;53.352;-6.356;2022-10-16T13:11:27;11.50;99.90
35531;DHT22;21637;53.352;-6.356;2022-10-16T13:21:18;11.40;99.90
35531;DHT22;21637;53.352;-6.356;2022-10-16T13:28:58;11.30;99.90
35531;DHT22;21637;53.352;-6.356;2022-10-16T13:31:24;11.20;99.90
35531;DHT22;21637;53.352;-6.356;2022-10-16T13:33:51;11.20;99.90
35531;DHT22;21637;53.352;-6.356;2022-10-16T13:36:21;11.20;99.90
35531;DHT22;21637;53.352;-6.356;2022-10-16T13:38:47;11.20;99.90
35531;DHT22;21637;53.352;-6.356;2022-10-16T13:41:17;11.20;99.90
35531;DHT22;21637;53.352;-6.356;2022-10-16T13:43:47;11.20;99.90
35531;DHT22;21637;53.352;-6.356;2022-10-16T13:46:16;11.20;99.90
35531;DHT22;21637;53.352;-6.356;2022-10-16T13:48:41;11.20;99.90
35531;DHT22;21637;53.352;-6.356;2022-10-16T13:51:14;11.10;99.90
35531;DHT22;21637;53.352;-6.356;2022-10-16T13:53:41;11.10;99.90
35531;DHT22;21637;53.352;-6.356;2022-10-16T13:56:10;11.00;99.90
35531;DHT22;21637;53.352;-6.356;2022-10-16T13:58:36;11.00;99.90
35531;DHT22;21637;53.352;-6.356;2022-10-16T14:01:02;11.00;99.90
35531;DHT22;21637;53.352;-6.356;2022-10-16T14:03:28;10.90;99.90
35531;DHT22;21637;53.352;-6.356;2022-10-16T14:05:56;10.90;99.90
35531;DHT22;21637;53.352;-6.356;2022-10-16T14:08:23;10.90;99.90
35531;DHT22;21637;53.352;-6.356;2022-10-16T14:10:50;10.90;99.90
35531;DHT22;21637;53.352;-6.356;2022-10-16T14:13:20;10.90;99.90
35531;DHT22;21637;53.352;-6.356;2022-10-16T14:15:49;10.90;99.90
35531;DHT22;21637;53.352;-6.356;2022-10-16T14:18:18;10.90;99.90
35531;DHT22;21637;53.352;-6.356;2022-10-16T14:20:44;10.90;99.90
35531;DHT22;21637;53.352;-6.356;2022-10-16T14:23:23;10.90;99.90
35531;DHT22;21637;53.352;-6.356;2022-10-16T14:25:50;10.90;99.90
35531;DHT22;21637;53.352;-6.356;2022-10-16T14:28:17;10.90;99.90
35531;DHT22;21637;53.352;-6.356;2022-10-16T14:30:50;10.90;99.90
35531;DHT22;21637;53.352;-6.356;2022-10-16T14:38:36;10.80;99.90
35531;DHT22;21637;53.352;-6.356;2022-10-16T14:41:03;10.80;99.90
35531;DHT22;21637;53.352;-6.356;2022-10-16T14:43:31;10.90;99.90
35531;DHT22;21637;53.352;-6.356;2022-10-16T14:45:58;10.90;99.90
35531;DHT22;21637;53.352;-6.356;2022-10-16T14:48:23;10.80;99.90
35531;DHT22;21637;53.352;-6.356;2022-10-16T14:50:49;10.80;99.90
35531;DHT22;21637;53.352;-6.356;2022-10-16T14:53:15;10.90;99.90
35531;DHT22;21637;53.352;-6.356;2022-10-16T14:55:41;10.90;99.90
35531;DHT22;21637;53.352;-6.356;2022-10-16T14:58:14;10.90;99.90
35531;DHT22;21637;53.352;-6.356;2022-10-16T15:00:40;11.00;99.90
35531;DHT22;21637;53.352;-6.356;2022-10-16T15:03:06;10.90;99.90
35531;DHT22;21637;53.352;-6.356;2022-10-16T15:05:31;11.00;99.90
35531;DHT22;21637;53.352;-6.356;2022-10-16T15:07:57;11.00;99.90
35531;DHT22;21637;53.352;-6.356;2022-10-16T15:10:24;11.00;99.90
35531;DHT22;21637;53.352;-6.356;2022-10-16T15:12:50;11.10;99.90
35531;DHT22;21637;53.352;-6.356;2022-10-16T15:17:41;11.10;99.90
35531;DHT22;21637;53.352;-6.356;2022-10-16T15:20:06;11.20;99.90
35531;DHT22;21637;53.352;-6.356;2022-10-16T15:22:32;11.30;99.90
35531;DHT22;21637;53.352;-6.356;2022-10-16T15:24:58;11.30;99.90
35531;DHT22;21637;53.352;-6.356;2022-10-16T15:27:23;11.30;99.90
35531;DHT22;21637;53.352;-6.356;2022-10-16T15:29:49;11.40;99.90
35531;DHT22;21637;53.352;-6.356;2022-10-16T15:32:14;11.50;99.90
35531;DHT22;21637;53.352;-6.356;2022-10-16T15:34:40;11.50;99.90
35531;DHT22;21637;53.352;-6.356;2022-10-16T15:37:05;11.60;99.90
35531;DHT22;21637;53.352;-6.356;2022-10-16T15:39:31;11.60;99.90
35531;DHT22;21637;53.352;-6.356;2022-10-16T15:41:56;11.60;99.90
35531;DHT22;21637;53.352;-6.356;2022-10-16T15:44:22;11.60;99.90
35531;DHT22;21637;53.352;-6.356;2022-10-16T15:46:55;11.60;99.90
35531;DHT22;21637;53.352;-6.356;2022-10-16T15:49:21;11.70;99.90
35531;DHT22;21637;53.352;-6.356;2022-10-16T15:51:47;11.70;99.90
35531;DHT22;21637;53.352;-6.356;2022-10-16T15:54:13;11.70;99.90
35531;DHT22;21637;53.352;-6.356;2022-10-16T15:56:38;11.70;99.90
35531;DHT22;21637;53.352;-6.356;2022-10-16T15:59:04;11.70;99.90
35531;DHT22;21637;53.352;-6.356;2022-10-16T16:01:33;11.60;99.90
35531;DHT22;21637;53.352;-6.356;2022-10-16T16:03:59;11.60;99.90
35531;DHT22;21637;53.352;-6.356;2022-10-16T16:06:25;11.60;99.90
35531;DHT22;21637;53.352;-6.356;2022-10-16T16:08:50;11.50;99.90
35531;DHT22;21637;53.352;-6.356;2022-10-16T16:11:16;11.50;99.90
35531;DHT22;21637;53.352;-6.356;2022-10-16T16:13:42;11.40;99.90
35531;DHT22;21637;53.352;-6.356;2022-10-16T16:16:09;11.40;99.90
35531;DHT22;21637;53.352;-6.356;2022-10-16T16:18:35;11.40;99.90
35531;DHT22;21637;53.352;-6.356;2022-10-16T16:21:01;11.30;99.90
35531;DHT22;21637;53.352;-6.356;2022-10-16T16:23:27;11.30;99.90
35531;DHT22;21637;53.352;-6.356;2022-10-16T16:26:11;11.20;99.90
35531;DHT22;21637;53.352;-6.356;2022-10-16T16:28:37;11.20;99.90
35531;DHT22;21637;53.352;-6.356;2022-10-16T16:31:03;11.20;99.90
35531;DHT22;21637;53.352;-6.356;2022-10-16T16:33:29;11.20;99.90
35531;DHT22;21637;53.352;-6.356;2022-10-16T16:35:56;11.20;99.90
35531;DHT22;21637;53.352;-6.356;2022-10-16T16:38:22;11.20;99.90
35531;DHT22;21637;53.352;-6.356;2022-10-16T16:40:48;11.20;99.90
35531;DHT22;21637;53.352;-6.356;2022-10-16T16:43:13;11.30;99.90
35531;DHT22;21637;53.352;-6.356;2022-10-16T16:45:39;11.20;99.90
35531;DHT22;21637;53.352;-6.356;2022-10-16T16:48:04;11.30;99.90
35531;DHT22;21637;53.352;-6.356;2022-10-16T16:50:34;11.30;99.90
35531;DHT22;21637;53.352;-6.356;2022-10-16T16:53:00;11.30;99.90
35531;DHT22;21637;53.352;-6.356;2022-10-16T16:55:25;11.30;99.90
35531;DHT22;21637;53.352;-6.356;2022-10-16T16:57:51;11.40;99.90
35531;DHT22;21637;53.352;-6.356;2022-10-16T17:00:17;11.50;99.90
35531;DHT22;21637;53.352;-6.356;2022-10-16T17:02:42;11.50;99.90
35531;DHT22;21637;53.352;-6.356;2022-10-16T17:05:09;11.60;99.90
35531;DHT22;21637;53.352;-6.356;2022-10-16T17:07:35;11.60;99.90
35531;DHT22;21637;53.352;-6.356;2022-10-16T17:10:01;11.70;99.90
35531;DHT22;21637;53.352;-6.356;2022-10-16T17:12:28;11.70;99.90